createdAt,value
2019-04-13T00:02:37.060Z,13.93
2019-04-13T00:05:39.210Z,16.27
2019-04-13T00:08:09.135Z,13.30
2019-04-13T00:10:52.179Z,14.10
2019-04-13T00:13:19.855Z,14.97
2019-04-13T00:15:47.348Z,13.43
2019-04-13T00:18:14.971Z,13.90
2019-04-13T00:20:42.280Z,13.93
2019-04-13T00:23:09.639Z,14.57
2019-04-13T00:25:37.025Z,14.17
2019-04-13T00:28:04.271Z,13.33
2019-04-13T00:30:31.662Z,13.90
2019-04-13T00:32:59.019Z,13.30
2019-04-13T00:35:26.298Z,14.53
2019-04-13T00:37:53.620Z,14.83
2019-04-13T00:40:21.086Z,13.67
2019-04-13T00:42:48.379Z,13.13
2019-04-13T00:45:15.634Z,13.30
2019-04-13T00:47:42.940Z,14.63
2019-04-13T00:50:11.458Z,13.93
2019-04-13T00:52:40.232Z,14.60
2019-04-13T00:55:08.311Z,13.50
2019-04-13T00:57:36.115Z,15.03
2019-04-13T01:00:04.832Z,14.63
2019-04-13T01:02:32.183Z,15.00
2019-04-13T01:04:59.573Z,15.07
2019-04-13T01:07:27.049Z,14.87
2019-04-13T01:09:54.475Z,15.70
2019-04-13T01:12:21.728Z,15.30
2019-04-13T01:14:49.137Z,16.07
2019-04-13T01:17:16.516Z,15.77
2019-04-13T01:19:43.857Z,16.70
2019-04-13T01:22:11.262Z,16.53
2019-04-13T01:24:38.513Z,15.83
2019-04-13T01:27:05.889Z,16.80
2019-04-13T01:29:33.143Z,16.20
2019-04-13T01:32:00.438Z,15.90
2019-04-13T01:34:27.801Z,16.27
2019-04-13T01:36:55.221Z,16.97
2019-04-13T01:39:22.680Z,15.73
2019-04-13T01:41:49.993Z,16.30
2019-04-13T01:44:17.434Z,15.00
2019-04-13T01:46:44.799Z,15.53
2019-04-13T01:49:12.255Z,16.43
2019-04-13T01:51:39.754Z,16.63
2019-04-13T01:54:07.167Z,15.07
2019-04-13T01:56:34.522Z,14.97
2019-04-13T01:59:01.822Z,16.43
2019-04-13T02:01:43.999Z,16.40
2019-04-13T02:04:33.546Z,17.47
2019-04-13T02:07:07.029Z,15.80
2019-04-13T02:09:54.379Z,17.33
2019-04-13T02:12:21.989Z,16.07
2019-04-13T02:14:49.651Z,16.67
2019-04-13T02:17:17.431Z,15.63
2019-04-13T02:19:45.105Z,15.67
2019-04-13T02:22:12.839Z,15.93
2019-04-13T02:24:40.618Z,15.53
2019-04-13T02:27:07.986Z,16.50
2019-04-13T02:29:35.344Z,16.40
2019-04-13T02:32:02.623Z,15.87
2019-04-13T02:34:29.966Z,16.57
2019-04-13T02:36:57.222Z,16.97
2019-04-13T02:39:24.639Z,14.60
2019-04-13T02:41:51.946Z,15.97
2019-04-13T02:44:19.384Z,16.73
2019-04-13T02:46:46.700Z,16.40
2019-04-13T02:49:14.031Z,16.03
2019-04-13T02:51:41.393Z,15.80
2019-04-13T02:54:09.436Z,16.53
2019-04-13T02:56:36.772Z,15.00
2019-04-13T02:59:04.163Z,16.07
2019-04-13T03:01:31.547Z,17.40
2019-04-13T03:03:59.172Z,15.40
2019-04-13T03:06:26.671Z,15.67
2019-04-13T03:08:53.968Z,17.33
2019-04-13T03:11:21.744Z,16.10
2019-04-13T03:13:49.251Z,16.93
2019-04-13T03:16:31.236Z,15.27
2019-04-13T03:19:06.112Z,16.33
2019-04-13T03:21:33.512Z,16.60
2019-04-13T03:24:00.766Z,17.00
2019-04-13T03:26:28.140Z,16.33
2019-04-13T03:28:55.601Z,16.10
2019-04-13T03:31:42.418Z,16.57
2019-04-13T03:34:09.728Z,17.77
2019-04-13T03:36:37.066Z,17.53
2019-04-13T03:39:07.131Z,17.50
2019-04-13T03:41:34.919Z,17.37
2019-04-13T03:44:02.304Z,17.27
2019-04-13T03:46:29.851Z,16.77
2019-04-13T03:48:57.191Z,16.70
2019-04-13T03:51:24.440Z,17.83
2019-04-13T03:53:51.858Z,17.53
2019-04-13T03:56:19.215Z,17.10
2019-04-13T03:58:46.511Z,18.37
2019-04-13T04:01:13.771Z,18.67
2019-04-13T04:03:41.189Z,18.60
2019-04-13T04:06:11.982Z,16.50
2019-04-13T04:08:37.732Z,17.87
2019-04-13T04:11:05.358Z,17.67
2019-04-13T04:13:32.599Z,17.90
2019-04-13T04:15:59.876Z,18.37
2019-04-13T04:18:27.271Z,18.00
2019-04-13T04:20:54.929Z,17.90
2019-04-13T04:23:22.192Z,18.53
2019-04-13T04:25:49.526Z,16.40
2019-04-13T04:28:16.774Z,18.77
2019-04-13T04:30:44.042Z,18.87
2019-04-13T04:33:11.320Z,20.03
2019-04-13T04:35:38.666Z,19.50
2019-04-13T04:38:05.947Z,17.37
2019-04-13T04:40:35.220Z,18.67
2019-04-13T04:43:02.415Z,18.27
2019-04-13T04:45:29.803Z,19.03
2019-04-13T04:47:57.264Z,19.63
2019-04-13T04:50:24.654Z,16.60
2019-04-13T04:52:52.107Z,18.90
2019-04-13T04:55:19.451Z,17.90
2019-04-13T04:57:46.763Z,18.70
2019-04-13T05:00:14.029Z,18.80
2019-04-13T05:02:41.383Z,18.23
2019-04-13T05:05:08.674Z,18.50
2019-04-13T05:07:36.021Z,19.20
2019-04-13T05:10:03.315Z,18.60
2019-04-13T05:12:30.554Z,19.87
2019-04-13T05:14:57.824Z,18.37
2019-04-13T05:17:25.074Z,19.80
2019-04-13T05:19:52.328Z,20.00
2019-04-13T05:22:26.206Z,20.40
2019-04-13T05:24:48.771Z,18.50
2019-04-13T05:27:15.991Z,18.63
2019-04-13T05:29:43.267Z,19.40
2019-04-13T05:32:10.626Z,18.63
2019-04-13T05:34:37.874Z,19.67
2019-04-13T05:37:05.144Z,21.63
2019-04-13T05:39:32.481Z,22.07
2019-04-13T05:41:59.851Z,23.43
2019-04-13T05:44:27.103Z,21.33
2019-04-13T05:46:54.357Z,19.37
2019-04-13T05:49:21.993Z,20.67
2019-04-13T05:51:49.247Z,20.00
2019-04-13T05:54:16.624Z,19.93
2019-04-13T05:56:43.868Z,20.70
2019-04-13T05:59:11.277Z,19.53
2019-04-13T06:01:38.549Z,22.27
2019-04-13T06:04:05.938Z,20.47
2019-04-13T06:06:33.469Z,21.43
2019-04-13T06:09:00.807Z,20.57
2019-04-13T06:11:28.300Z,21.67
2019-04-13T06:13:57.823Z,21.40
2019-04-13T06:16:24.713Z,20.87
2019-04-13T06:18:52.778Z,20.07
2019-04-13T06:21:20.213Z,20.30
2019-04-13T06:23:49.856Z,21.30
2019-04-13T06:26:16.882Z,20.97
2019-04-13T06:28:47.686Z,20.77
2019-04-13T06:31:31.531Z,20.47
2019-04-13T06:34:07.067Z,21.70
2019-04-13T06:36:34.507Z,20.97
2019-04-13T06:39:01.810Z,21.30
2019-04-13T06:41:29.453Z,21.40
2019-04-13T06:43:58.538Z,22.23
2019-04-13T06:46:26.031Z,20.77
2019-04-13T06:48:53.778Z,21.80
2019-04-13T06:51:21.147Z,20.67
2019-04-13T06:53:48.431Z,20.43
2019-04-13T06:56:15.900Z,21.67
2019-04-13T06:58:43.254Z,21.70
2019-04-13T07:01:10.508Z,21.47
2019-04-13T07:03:38.681Z,20.87
2019-04-13T07:06:07.146Z,20.53
2019-04-13T07:08:52.545Z,20.90
2019-04-13T07:11:28.351Z,20.63
2019-04-13T07:13:58.680Z,20.83
2019-04-13T07:16:29.186Z,21.60
2019-04-13T07:18:56.624Z,20.20
2019-04-13T07:21:24.032Z,20.03
2019-04-13T07:23:57.832Z,20.43
2019-04-13T07:26:22.739Z,20.33
2019-04-13T07:28:50.326Z,20.37
2019-04-13T07:31:17.563Z,21.87
2019-04-13T07:33:44.937Z,21.60
2019-04-13T07:36:12.867Z,20.90
2019-04-13T07:38:40.138Z,20.17
2019-04-13T07:41:07.933Z,19.87
2019-04-13T07:43:35.339Z,20.40
2019-04-13T07:46:11.196Z,20.83
2019-04-13T07:48:57.999Z,19.47
2019-04-13T07:51:51.224Z,19.47
2019-04-13T07:54:16.051Z,20.00
2019-04-13T07:56:43.367Z,20.03
2019-04-13T07:59:10.700Z,20.27
2019-04-13T08:01:38.698Z,19.33
2019-04-13T08:04:06.850Z,19.90
2019-04-13T08:06:36.664Z,20.80
2019-04-13T08:09:05.143Z,20.33
2019-04-13T08:11:32.391Z,20.20
2019-04-13T08:14:02.643Z,20.93
2019-04-13T08:16:29.955Z,20.03
2019-04-13T08:19:12.084Z,21.50
2019-04-13T08:21:40.177Z,19.90
2019-04-13T08:24:07.466Z,20.03
2019-04-13T08:26:34.820Z,19.77
2019-04-13T08:29:02.203Z,19.73
2019-04-13T08:31:29.765Z,19.90
2019-04-13T08:33:57.023Z,19.47
2019-04-13T08:36:24.301Z,19.57
2019-04-13T08:38:58.554Z,20.63
2019-04-13T08:41:21.861Z,19.30
2019-04-13T08:43:49.527Z,19.50
2019-04-13T08:46:16.935Z,18.80
2019-04-13T08:48:44.271Z,19.83
2019-04-13T08:51:15.246Z,18.70
2019-04-13T08:53:40.723Z,21.27
2019-04-13T08:56:09.208Z,20.90
2019-04-13T08:58:36.543Z,18.97
2019-04-13T09:01:04.953Z,17.83
2019-04-13T09:03:33.205Z,18.57
2019-04-13T09:06:00.607Z,19.60
2019-04-13T09:08:29.550Z,20.07
2019-04-13T09:10:57.950Z,19.23
2019-04-13T09:13:30.067Z,41.83
2019-04-13T09:15:55.490Z,35.97
2019-04-13T09:18:42.705Z,22.87
2019-04-13T09:21:23.838Z,18.43
2019-04-13T09:23:50.791Z,17.33
2019-04-13T09:26:18.116Z,17.73
2019-04-13T09:29:05.599Z,17.70
2019-04-13T09:31:32.938Z,15.40
2019-04-13T09:34:00.204Z,15.37
2019-04-13T09:36:47.168Z,15.90
2019-04-13T09:39:14.411Z,14.83
2019-04-13T09:41:41.735Z,17.10
2019-04-13T09:44:38.408Z,15.50
2019-04-13T09:47:16.862Z,14.83
2019-04-13T09:49:44.342Z,14.10
2019-04-13T09:52:11.583Z,13.70
2019-04-13T09:54:40.771Z,14.10
2019-04-13T09:57:08.068Z,14.07
2019-04-13T09:59:35.278Z,14.23
2019-04-13T10:02:02.531Z,14.57
2019-04-13T10:04:29.775Z,15.00
2019-04-13T10:06:58.839Z,14.87
2019-04-13T10:09:26.613Z,14.80
2019-04-13T10:12:32.608Z,13.90
2019-04-13T10:15:18.870Z,14.00
2019-04-13T10:17:54.337Z,14.33
2019-04-13T10:20:20.138Z,14.23
2019-04-13T10:22:47.432Z,24.57
2019-04-13T10:25:14.795Z,13.87
2019-04-13T10:27:42.046Z,13.50
2019-04-13T10:30:09.444Z,12.93
2019-04-13T10:32:36.693Z,13.57
2019-04-13T10:35:04.343Z,13.90
2019-04-13T10:37:31.611Z,13.33
2019-04-13T10:39:58.876Z,13.60
2019-04-13T10:42:26.154Z,14.47
2019-04-13T10:45:15.972Z,24.93
2019-04-13T10:48:08.772Z,19.50
2019-04-13T10:50:48.947Z,16.70
2019-04-13T10:53:16.237Z,12.37
2019-04-13T10:55:43.476Z,11.43
2019-04-13T10:58:10.853Z,10.87
2019-04-13T11:00:38.100Z,11.93
2019-04-13T11:03:05.764Z,11.73
2019-04-13T11:05:33.023Z,11.03
2019-04-13T11:08:00.268Z,10.23
2019-04-13T11:10:27.531Z,10.97
2019-04-13T11:12:54.809Z,11.00
2019-04-13T11:15:22.035Z,10.07
2019-04-13T11:17:49.291Z,11.00
2019-04-13T11:20:16.629Z,12.03
2019-04-13T11:22:44.063Z,12.13
2019-04-13T11:25:11.374Z,12.70
2019-04-13T11:27:38.682Z,12.47
2019-04-13T11:30:06.445Z,12.80
2019-04-13T11:32:33.807Z,11.53
2019-04-13T11:35:04.448Z,12.90
2019-04-13T11:37:32.442Z,12.13
2019-04-13T11:39:59.523Z,12.13
2019-04-13T11:42:45.085Z,12.90
2019-04-13T11:45:31.959Z,12.60
2019-04-13T11:48:18.449Z,12.20
2019-04-13T11:50:48.101Z,12.50
2019-04-13T11:53:15.333Z,13.20
2019-04-13T11:55:42.578Z,12.33
2019-04-13T11:58:10.010Z,12.77
2019-04-13T12:00:55.396Z,11.60
2019-04-13T12:04:00.032Z,11.87
2019-04-13T12:06:47.452Z,12.80
2019-04-13T12:09:35.501Z,11.67
2019-04-13T12:12:08.907Z,12.93
2019-04-13T12:14:53.906Z,13.17
2019-04-13T12:17:52.158Z,12.37
2019-04-13T12:20:30.327Z,13.13
2019-04-13T12:22:57.668Z,12.37
2019-04-13T12:25:24.995Z,12.47
2019-04-13T12:27:52.269Z,11.10
2019-04-13T12:30:22.989Z,12.57
2019-04-13T12:32:50.338Z,11.93
2019-04-13T12:35:17.593Z,12.93
2019-04-13T12:37:45.129Z,12.43
2019-04-13T12:40:24.952Z,12.45
2019-04-13T12:42:52.236Z,12.55
2019-04-13T12:45:19.513Z,13.47
2019-04-13T12:47:46.780Z,11.90
2019-04-13T12:50:14.128Z,13.00
2019-04-13T12:52:41.388Z,14.60
2019-04-13T12:55:08.643Z,14.23
2019-04-13T12:57:35.984Z,13.93
2019-04-13T13:00:08.080Z,13.50
2019-04-13T13:02:46.505Z,13.27
2019-04-13T13:05:22.322Z,14.67
2019-04-13T13:07:49.705Z,14.30
2019-04-13T13:10:16.942Z,16.50
2019-04-13T13:12:45.676Z,15.13
2019-04-13T13:15:13.512Z,14.43
2019-04-13T13:17:41.038Z,14.50
2019-04-13T13:20:08.340Z,15.07
2019-04-13T13:22:35.615Z,15.70
2019-04-13T13:25:03.102Z,15.47
2019-04-13T13:27:30.475Z,16.17
2019-04-13T13:29:57.726Z,14.87
2019-04-13T13:32:25.172Z,14.30
2019-04-13T13:34:52.426Z,14.47
2019-04-13T13:37:19.685Z,13.60
2019-04-13T13:39:46.926Z,13.30
2019-04-13T13:42:14.187Z,13.17
2019-04-13T13:44:41.863Z,12.83
2019-04-13T13:47:09.223Z,14.33
2019-04-13T13:49:36.464Z,16.30
2019-04-13T13:52:05.889Z,11.97
2019-04-13T13:54:32.927Z,12.27
2019-04-13T13:57:00.427Z,12.43
2019-04-13T13:59:29.293Z,13.70
2019-04-13T14:02:02.292Z,13.03
2019-04-13T14:04:29.515Z,11.85
2019-04-13T14:07:00.569Z,10.68
2019-04-13T14:09:28.101Z,11.25
2019-04-13T14:11:55.987Z,12.25
2019-04-13T14:14:23.506Z,12.20
2019-04-13T14:16:51.245Z,12.18
2019-04-13T14:19:18.528Z,13.78
2019-04-13T14:21:45.786Z,12.17
2019-04-13T14:24:13.022Z,12.07
2019-04-13T14:26:40.363Z,11.83
2019-04-13T14:29:10.537Z,12.90
2019-04-13T14:31:36.759Z,12.33
2019-04-13T14:34:04.131Z,13.10
2019-04-13T14:36:35.054Z,13.23
2019-04-13T14:39:02.859Z,12.30
2019-04-13T14:41:29.958Z,14.07
2019-04-13T14:43:57.319Z,13.60
2019-04-13T14:46:24.559Z,13.13
2019-04-13T14:48:51.887Z,12.77
2019-04-13T14:51:21.198Z,13.17
2019-04-13T14:53:48.356Z,15.97
2019-04-13T14:56:18.247Z,14.10
2019-04-13T14:58:45.805Z,14.30
2019-04-13T15:01:13.863Z,13.87
2019-04-13T15:03:41.614Z,11.23
2019-04-13T15:06:08.932Z,11.93
2019-04-13T15:08:36.607Z,12.77
2019-04-13T15:11:16.453Z,11.93
2019-04-13T15:13:33.914Z,13.07
2019-04-13T15:16:04.389Z,13.43
2019-04-13T15:18:45.710Z,13.17
2019-04-13T15:21:13.228Z,13.00
2019-04-13T15:23:42.689Z,134.13
2019-04-13T15:26:10.309Z,18.37
2019-04-13T15:28:39.770Z,15.97
2019-04-13T15:31:09.726Z,15.00
2019-04-13T15:33:37.428Z,14.63
2019-04-13T15:36:06.237Z,13.40
2019-04-13T15:38:33.827Z,12.93
2019-04-13T15:41:03.243Z,13.13
2019-04-13T15:43:33.396Z,14.17
2019-04-13T15:46:00.584Z,13.30
2019-04-13T15:48:28.964Z,13.00
2019-04-13T15:50:57.629Z,13.17
2019-04-13T15:53:25.229Z,12.93
2019-04-13T15:55:52.567Z,12.97
2019-04-13T15:58:20.701Z,13.03
2019-04-13T16:01:15.719Z,23.20
2019-04-13T16:03:44.414Z,14.47
2019-04-13T16:06:17.029Z,17.13
2019-04-13T16:08:55.937Z,14.07
2019-04-13T16:11:47.208Z,15.67
2019-04-13T16:14:06.640Z,14.50
2019-04-13T16:16:35.734Z,14.47
2019-04-13T16:19:03.377Z,12.57
2019-04-13T16:21:30.857Z,13.07
2019-04-13T16:23:58.483Z,14.40
2019-04-13T16:26:26.993Z,15.90
2019-04-13T16:29:22.895Z,15.43
2019-04-13T16:32:05.886Z,15.27
2019-04-13T16:34:59.531Z,13.77
2019-04-13T16:37:34.099Z,16.00
2019-04-13T16:40:02.329Z,15.17
2019-04-13T16:42:32.882Z,19.23
2019-04-13T16:45:19.031Z,16.37
2019-04-13T16:48:04.734Z,15.37
2019-04-13T16:50:39.010Z,16.27
2019-04-13T16:53:37.607Z,14.27
2019-04-13T16:56:14.499Z,15.20
2019-04-13T16:59:07.409Z,13.37
2019-04-13T17:01:50.390Z,13.53
2019-04-13T17:04:33.840Z,14.10
2019-04-13T17:07:01.321Z,15.37
2019-04-13T17:09:29.308Z,14.27
2019-04-13T17:12:13.513Z,15.33
2019-04-13T17:14:26.977Z,15.13
2019-04-13T17:16:54.797Z,17.43
2019-04-13T17:19:53.648Z,16.23
2019-04-13T17:22:43.724Z,16.83
2019-04-13T17:25:34.823Z,15.73
2019-04-13T17:28:14.060Z,15.57
2019-04-13T17:31:03.674Z,16.00
2019-04-13T17:33:35.601Z,15.37
2019-04-13T17:36:04.827Z,17.00
2019-04-13T17:38:33.063Z,16.13
2019-04-13T17:41:21.362Z,15.70
2019-04-13T17:43:53.837Z,15.83
2019-04-13T17:46:44.993Z,15.50
2019-04-13T17:49:28.278Z,15.90
2019-04-13T17:52:25.455Z,15.83
2019-04-13T17:54:58.831Z,14.37
2019-04-13T17:57:45.893Z,15.63
2019-04-13T18:00:35.134Z,15.60
2019-04-13T18:03:17.742Z,16.00
2019-04-13T18:05:59.008Z,17.73
2019-04-13T18:09:01.911Z,19.87
2019-04-13T18:11:47.744Z,23.73
2019-04-13T18:14:26.018Z,19.27
2019-04-13T18:17:00.763Z,17.20
2019-04-13T18:19:28.291Z,17.70
2019-04-13T18:21:56.203Z,18.30
2019-04-13T18:24:24.228Z,21.37
2019-04-13T18:26:52.249Z,15.50
2019-04-13T18:29:19.963Z,16.80
2019-04-13T18:31:48.212Z,16.03
2019-04-13T18:34:16.098Z,16.23
2019-04-13T18:36:43.804Z,15.10
2019-04-13T18:39:11.449Z,15.23
2019-04-13T18:41:39.515Z,15.37
2019-04-13T18:44:07.590Z,18.73
2019-04-13T18:46:36.275Z,17.17
2019-04-13T18:49:05.213Z,19.90
2019-04-13T18:51:33.346Z,20.37
2019-04-13T18:54:01.012Z,21.23
2019-04-13T18:56:28.354Z,19.30
2019-04-13T18:58:56.502Z,21.37
2019-04-13T19:01:25.089Z,20.53
2019-04-13T19:03:52.868Z,20.33
2019-04-13T19:06:27.059Z,21.97
2019-04-13T19:08:49.586Z,23.07
2019-04-13T19:11:17.083Z,21.83
2019-04-13T19:13:44.672Z,22.70
2019-04-13T19:16:12.269Z,23.80
2019-04-13T19:18:39.834Z,25.33
2019-04-13T19:21:07.085Z,21.77
2019-04-13T19:23:34.539Z,23.63
2019-04-13T19:26:02.471Z,23.43
2019-04-13T19:28:29.747Z,23.07
2019-04-13T19:30:56.996Z,23.37
2019-04-13T19:33:24.367Z,22.60
2019-04-13T19:35:51.765Z,22.77
2019-04-13T19:38:19.282Z,23.70
2019-04-13T19:40:46.858Z,23.17
2019-04-13T19:43:16.674Z,24.37
2019-04-13T19:45:43.936Z,24.70
2019-04-13T19:48:11.704Z,25.83
2019-04-13T19:50:39.650Z,25.57
2019-04-13T19:53:22.323Z,23.77
2019-04-13T19:55:49.711Z,24.20
2019-04-13T19:58:17.067Z,23.83
2019-04-13T20:00:48.288Z,23.03
2019-04-13T20:03:21.657Z,24.13
2019-04-13T20:05:57.380Z,24.40
2019-04-13T20:08:25.105Z,30.07
2019-04-13T20:10:52.595Z,25.50
2019-04-13T20:13:35.514Z,27.77
2019-04-13T20:15:50.776Z,25.37
2019-04-13T20:18:19.269Z,26.80
2019-04-13T20:20:48.092Z,25.63
2019-04-13T20:23:18.079Z,24.77
2019-04-13T20:25:46.135Z,24.93
2019-04-13T20:28:13.728Z,26.63
2019-04-13T20:30:43.431Z,27.13
2019-04-13T20:33:13.267Z,24.83
2019-04-13T20:35:51.514Z,24.87
2019-04-13T20:38:10.828Z,27.50
2019-04-13T20:41:06.634Z,25.87
2019-04-13T20:43:46.669Z,25.83
2019-04-13T20:46:04.057Z,26.77
2019-04-13T20:48:31.437Z,29.00
2019-04-13T20:50:59.196Z,28.57
2019-04-13T20:53:26.745Z,27.57
2019-04-13T20:55:54.681Z,31.47
2019-04-13T20:58:22.644Z,29.73
2019-04-13T21:00:51.251Z,30.50
2019-04-13T21:03:18.756Z,32.40
2019-04-13T21:05:47.226Z,32.33
2019-04-13T21:08:14.740Z,31.93
2019-04-13T21:10:42.233Z,33.13
2019-04-13T21:13:15.535Z,33.03
2019-04-13T21:15:42.867Z,34.90
2019-04-13T21:18:10.309Z,35.30
2019-04-13T21:20:38.218Z,34.17
2019-04-13T21:23:10.221Z,34.13
2019-04-13T21:25:37.965Z,33.10
2019-04-13T21:28:06.038Z,34.37
2019-04-13T21:30:33.968Z,34.37
2019-04-13T21:33:01.927Z,36.77
2019-04-13T21:35:32.030Z,36.60
2019-04-13T21:37:59.545Z,39.67
2019-04-13T21:40:27.358Z,34.30
2019-04-13T21:42:55.574Z,41.10
2019-04-13T21:45:23.286Z,39.47
2019-04-13T21:47:51.294Z,36.83
2019-04-13T21:50:37.003Z,39.27
2019-04-13T21:53:13.769Z,38.67
2019-04-13T21:55:42.208Z,38.13
2019-04-13T21:58:09.898Z,36.57
2019-04-13T22:01:12.960Z,40.03
2019-04-13T22:03:40.548Z,38.13
2019-04-13T22:06:08.197Z,39.53
2019-04-13T22:08:35.983Z,39.63
2019-04-13T22:11:03.790Z,38.00
2019-04-13T22:13:31.779Z,40.17
2019-04-13T22:15:59.493Z,40.53
2019-04-13T22:18:27.812Z,37.77
2019-04-13T22:20:55.848Z,39.90
2019-04-13T22:23:23.572Z,39.67
2019-04-13T22:25:51.604Z,40.83
2019-04-13T22:28:21.554Z,40.00
2019-04-13T22:31:03.330Z,39.63
2019-04-13T22:33:30.763Z,39.43
2019-04-13T22:36:07.250Z,38.97
2019-04-13T22:38:34.851Z,39.53
2019-04-13T22:41:02.664Z,35.53
2019-04-13T22:43:30.452Z,40.83
2019-04-13T22:45:58.406Z,36.60
2019-04-13T22:48:48.577Z,37.30
2019-04-13T22:51:34.421Z,38.53
2019-04-13T22:54:10.089Z,37.00
2019-04-13T22:56:59.503Z,38.77
2019-04-13T22:59:26.984Z,37.63
2019-04-13T23:02:06.045Z,38.00
2019-04-13T23:04:34.085Z,37.10
2019-04-13T23:07:01.865Z,36.93
2019-04-13T23:09:30.197Z,37.97
2019-04-13T23:11:58.533Z,35.60
2019-04-13T23:14:26.559Z,37.93
2019-04-13T23:16:54.187Z,36.67
2019-04-13T23:19:21.942Z,36.80
2019-04-13T23:21:50.479Z,37.73
2019-04-13T23:24:18.981Z,37.90
2019-04-13T23:26:47.271Z,37.07
2019-04-13T23:29:14.989Z,37.53
2019-04-13T23:31:43.293Z,37.60
2019-04-13T23:34:11.444Z,37.27
2019-04-13T23:36:39.992Z,40.27
2019-04-13T23:39:08.316Z,40.43
2019-04-13T23:41:36.379Z,40.43
2019-04-13T23:44:04.765Z,41.00
2019-04-13T23:46:32.922Z,39.13
2019-04-13T23:49:01.319Z,39.00
2019-04-13T23:51:29.595Z,39.03
2019-04-13T23:53:57.755Z,38.03
2019-04-13T23:56:47.861Z,38.33
2019-04-13T23:59:26.418Z,41.90
